Time;durP1;ratioP1;P1;durP2;ratioP2;P2;SDS_P1;SDS_P2;PMS_P1;PMS_P2;Temp;Humidity;BMP_temperature;BMP_pressure;BME280_temperature;BME280_humidity;BME280_pressure;Samples;Min_cycle;Max_cycle;Signal;HPM_P1;HPM_P2
2023/04/11 00:01:50;;;;;;;7.20;6.50;;;12.90;99.90;;;;;;5043739;28;20188;-53
2023/04/11 00:04:16;;;;;;;6.93;6.23;;;12.90;99.90;;;;;;5039500;28;20212;-54
2023/04/11 00:06:42;;;;;;;7.50;6.73;;;12.90;99.90;;;;;;5043497;28;20192;-51
2023/04/11 00:09:10;;;;;;;7.07;6.37;;;12.90;99.90;;;;;;5047170;28;20475;-53
2023/04/11 00:11:35;;;;;;;7.50;6.60;;;13.00;99.90;;;;;;5048170;28;20819;-53
2023/04/11 00:14:04;;;;;;;7.73;6.93;;;13.00;99.90;;;;;;5046002;28;20447;-55
2023/04/11 00:16:32;;;;;;;8.27;7.17;;;13.00;99.90;;;;;;5046981;28;20192;-53
2023/04/11 00:18:58;;;;;;;6.90;6.20;;;12.90;99.90;;;;;;5049560;28;20537;-55
2023/04/11 00:21:24;;;;;;;6.70;5.80;;;12.90;99.90;;;;;;5058484;28;20473;-53
2023/04/11 00:23:52;;;;;;;8.30;6.93;;;12.90;99.90;;;;;;5045294;28;20474;-53
2023/04/11 00:26:18;;;;;;;8.03;6.93;;;12.80;99.90;;;;;;5045642;28;20193;-54
2023/04/11 00:28:44;;;;;;;7.33;6.63;;;12.90;99.90;;;;;;5044700;28;20435;-54
2023/04/11 00:31:11;;;;;;;7.30;6.67;;;12.90;99.90;;;;;;5043134;28;20463;-55
2023/04/11 00:33:36;;;;;;;8.03;6.50;;;12.90;99.90;;;;;;5042424;28;20698;-53
2023/04/11 00:36:02;;;;;;;7.50;6.70;;;12.90;99.90;;;;;;5044239;28;20443;-52
2023/04/11 00:38:28;;;;;;;7.80;7.00;;;12.90;99.90;;;;;;5045161;28;20187;-55
2023/04/11 00:40:53;;;;;;;6.70;6.00;;;12.80;99.90;;;;;;5044273;28;20199;-53
2023/04/11 00:43:19;;;;;;;8.40;6.80;;;12.90;99.90;;;;;;5043059;28;20196;-55
2023/04/11 00:45:45;;;;;;;6.23;5.63;;;12.90;99.90;;;;;;5047753;28;20243;-54
2023/04/11 00:48:10;;;;;;;6.80;6.10;;;12.80;99.90;;;;;;5047927;28;20504;-55
2023/04/11 00:50:40;;;;;;;8.00;6.50;;;12.80;99.90;;;;;;5048063;28;20188;-54
2023/04/11 00:53:07;;;;;;;8.00;5.80;;;12.80;99.90;;;;;;5047624;28;20645;-56
2023/04/11 00:55:33;;;;;;;6.70;5.97;;;12.80;99.90;;;;;;5048210;28;20466;-54
2023/04/11 00:57:59;;;;;;;6.43;5.83;;;12.70;99.90;;;;;;5047383;28;20951;-53
2023/04/11 01:00:25;;;;;;;7.10;6.33;;;12.70;99.90;;;;;;5045728;28;20249;-55
2023/04/11 01:02:52;;;;;;;6.30;5.60;;;12.70;99.90;;;;;;5044963;28;20442;-53
2023/04/11 01:05:18;;;;;;;9.60;6.33;;;12.80;99.90;;;;;;5048616;28;20485;-54
2023/04/11 01:07:47;;;;;;;7.10;6.40;;;12.70;99.90;;;;;;5049076;28;20443;-52
2023/04/11 01:10:15;;;;;;;7.07;5.87;;;12.80;99.90;;;;;;5045774;28;20450;-54
2023/04/11 01:12:42;;;;;;;6.23;5.63;;;12.90;99.90;;;;;;5043939;28;20451;-54
2023/04/11 01:15:08;;;;;;;8.40;5.90;;;12.90;99.90;;;;;;5051274;28;20476;-54
2023/04/11 01:17:34;;;;;;;6.50;5.80;;;12.90;99.90;;;;;;5055529;28;20439;-57
2023/04/11 01:20:00;;;;;;;7.97;6.10;;;12.90;99.90;;;;;;5049958;28;21014;-54
2023/04/11 01:22:26;;;;;;;8.37;6.70;;;12.90;99.90;;;;;;5045397;28;20362;-52
2023/04/11 01:24:52;;;;;;;6.70;6.10;;;12.90;99.90;;;;;;5051382;28;20447;-54
2023/04/11 01:27:18;;;;;;;7.00;6.03;;;12.90;99.90;;;;;;5064074;28;20512;-54
2023/04/11 01:29:44;;;;;;;7.43;6.63;;;12.90;99.90;;;;;;5050361;28;20202;-56
2023/04/11 01:32:10;;;;;;;7.90;6.10;;;12.90;99.90;;;;;;5048692;28;20439;-52
2023/04/11 01:34:39;;;;;;;7.77;6.80;;;12.90;99.90;;;;;;5052494;28;20267;-53
2023/04/11 01:37:05;;;;;;;7.27;6.53;;;12.90;99.90;;;;;;5047999;28;20443;-53
2023/04/11 01:39:31;;;;;;;7.50;6.70;;;12.80;99.90;;;;;;5050409;28;20529;-54
2023/04/11 01:41:58;;;;;;;7.90;6.60;;;12.90;99.90;;;;;;5046799;28;20534;-52
2023/04/11 01:44:25;;;;;;;7.50;6.80;;;12.80;99.90;;;;;;5049624;28;20213;-55
2023/04/11 01:46:51;;;;;;;7.50;6.77;;;12.70;99.90;;;;;;5049983;28;20442;-53
2023/04/11 01:49:17;;;;;;;7.73;6.97;;;12.70;99.90;;;;;;5047139;28;20440;-55
2023/04/11 01:51:43;;;;;;;7.00;6.30;;;12.60;99.90;;;;;;5050192;28;20446;-54
2023/04/11 01:54:09;;;;;;;8.73;6.80;;;12.60;99.90;;;;;;5046059;28;20561;-54
2023/04/11 01:56:35;;;;;;;9.30;6.67;;;12.70;99.90;;;;;;5049587;28;20482;-55
2023/04/11 01:59:00;;;;;;;6.70;6.00;;;12.60;99.90;;;;;;5046038;28;20447;-53
2023/04/11 02:01:27;;;;;;;7.87;6.37;;;12.60;99.90;;;;;;5043761;28;20290;-54
2023/04/11 02:03:52;;;;;;;7.70;6.90;;;12.60;99.90;;;;;;5045878;28;20689;-55
2023/04/11 02:06:18;;;;;;;9.17;6.73;;;12.50;99.90;;;;;;5042712;28;20459;-52
2023/04/11 02:08:44;;;;;;;7.33;6.53;;;12.50;99.90;;;;;;5050160;28;20192;-53
2023/04/11 02:11:10;;;;;;;6.93;6.23;;;12.50;99.90;;;;;;5051211;28;20195;-53
2023/04/11 02:13:35;;;;;;;7.57;6.20;;;12.60;99.90;;;;;;5050034;28;20762;-55
2023/04/11 02:16:10;;;;;;;6.67;6.07;;;12.60;99.90;;;;;;5044504;28;20665;-57
2023/04/11 02:18:36;;;;;;;7.83;5.50;;;12.50;99.90;;;;;;5048421;28;20184;-54
2023/04/11 02:21:03;;;;;;;8.03;5.87;;;12.50;99.90;;;;;;5050704;28;20453;-54
2023/04/11 02:23:29;;;;;;;6.33;5.57;;;12.60;99.90;;;;;;5050238;28;20509;-55
2023/04/11 02:25:54;;;;;;;6.30;5.63;;;12.60;99.90;;;;;;5048558;28;20976;-56
2023/04/11 02:28:21;;;;;;;6.73;5.83;;;12.60;99.90;;;;;;5048725;28;20708;-55
2023/04/11 02:30:47;;;;;;;5.80;5.20;;;12.70;99.90;;;;;;5050080;28;20212;-52
2023/04/11 02:33:13;;;;;;;6.60;5.60;;;12.70;99.90;;;;;;5047855;28;20543;-55
2023/04/11 02:35:39;;;;;;;7.47;6.60;;;12.80;99.90;;;;;;5049411;28;20538;-54
2023/04/11 02:38:04;;;;;;;7.70;5.87;;;12.70;99.90;;;;;;5039960;28;20205;-54
2023/04/11 02:40:30;;;;;;;5.93;5.30;;;12.70;99.90;;;;;;5047415;28;20185;-53
2023/04/11 02:42:55;;;;;;;8.23;5.50;;;12.70;99.90;;;;;;5049515;28;20242;-52
2023/04/11 02:45:21;;;;;;;6.27;5.53;;;12.80;99.90;;;;;;5046072;28;20643;-55
2023/04/11 02:47:47;;;;;;;12.30;5.97;;;12.80;99.90;;;;;;5047479;28;20191;-55
2023/04/11 02:50:12;;;;;;;7.00;5.63;;;12.90;99.90;;;;;;5045478;28;20184;-53
2023/04/11 02:52:41;;;;;;;8.17;5.90;;;12.90;99.90;;;;;;5043726;28;20195;-53
2023/04/11 02:55:07;;;;;;;5.87;5.27;;;12.90;99.90;;;;;;5045284;28;20315;-54
2023/04/11 02:57:33;;;;;;;8.73;6.10;;;12.80;99.90;;;;;;5046018;28;20784;-53
2023/04/11 02:59:59;;;;;;;9.37;5.90;;;12.90;99.90;;;;;;5048373;28;20439;-54
2023/04/11 03:02:25;;;;;;;10.20;6.23;;;13.00;99.90;;;;;;5036406;28;20189;-53
2023/04/11 03:04:50;;;;;;;8.60;5.57;;;13.00;99.90;;;;;;5044472;28;20212;-55
2023/04/11 03:07:16;;;;;;;5.93;5.33;;;13.00;99.90;;;;;;5047032;28;20187;-54
2023/04/11 03:09:41;;;;;;;6.13;5.53;;;13.00;99.90;;;;;;5045684;28;20187;-53
2023/04/11 03:12:07;;;;;;;6.27;5.60;;;13.00;99.90;;;;;;5047706;28;20191;-53
2023/04/11 03:14:33;;;;;;;6.37;5.40;;;13.00;99.90;;;;;;5047402;28;20274;-53
2023/04/11 03:16:58;;;;;;;7.83;5.90;;;13.00;99.90;;;;;;5039503;28;20196;-53
2023/04/11 03:19:24;;;;;;;7.53;4.87;;;13.00;99.90;;;;;;5045532;28;20260;-53
2023/04/11 03:21:50;;;;;;;9.03;5.80;;;13.00;99.90;;;;;;5045916;28;20275;-56
2023/04/11 03:24:16;;;;;;;6.80;6.00;;;13.00;99.90;;;;;;5043794;28;20212;-55
2023/04/11 03:26:43;;;;;;;8.30;5.70;;;12.90;99.90;;;;;;5060244;28;20184;-53
2023/04/11 03:29:09;;;;;;;7.80;5.60;;;13.00;99.90;;;;;;5050391;28;20492;-53
2023/04/11 03:31:34;;;;;;;8.77;5.70;;;12.90;99.90;;;;;;5046889;28;20451;-53
2023/04/11 03:34:00;;;;;;;6.47;5.87;;;12.90;99.90;;;;;;5040557;28;20605;-55
2023/04/11 03:36:26;;;;;;;7.97;6.20;;;12.90;99.90;;;;;;5044729;28;20292;-53
2023/04/11 03:38:51;;;;;;;6.77;6.17;;;12.90;99.90;;;;;;5044587;28;20271;-54
2023/04/11 03:41:18;;;;;;;7.60;6.03;;;12.90;99.90;;;;;;5044546;28;20642;-51
2023/04/11 03:43:44;;;;;;;6.80;5.73;;;12.90;99.90;;;;;;5046215;28;20205;-54
2023/04/11 03:46:10;;;;;;;7.97;5.67;;;13.00;99.90;;;;;;5048360;28;20450;-54
2023/04/11 03:48:35;;;;;;;7.70;6.67;;;13.00;99.90;;;;;;5041911;28;20479;-54
2023/04/11 03:51:01;;;;;;;8.50;6.10;;;13.00;99.90;;;;;;5046779;28;20662;-52
2023/04/11 03:53:27;;;;;;;7.67;6.60;;;12.90;99.90;;;;;;5042998;28;20190;-55
2023/04/11 03:55:53;;;;;;;7.77;6.87;;;12.90;99.90;;;;;;5046666;28;20475;-53
2023/04/11 03:58:20;;;;;;;7.87;6.40;;;12.90;99.90;;;;;;5041196;28;20180;-55
2023/04/11 04:00:46;;;;;;;7.53;6.13;;;12.80;99.90;;;;;;5046347;28;20542;-55
2023/04/11 04:03:12;;;;;;;9.90;6.53;;;12.80;99.90;;;;;;5043549;28;20449;-56
2023/04/11 04:05:41;;;;;;;8.23;7.07;;;12.80;99.90;;;;;;5039033;28;20203;-53
2023/04/11 04:08:06;;;;;;;8.67;6.97;;;12.80;99.90;;;;;;5044224;28;20534;-54
2023/04/11 04:10:32;;;;;;;7.87;6.80;;;12.80;99.90;;;;;;5048470;28;21036;-55
2023/04/11 04:12:58;;;;;;;8.37;7.20;;;12.80;99.90;;;;;;5046640;28;20550;-55
2023/04/11 04:15:23;;;;;;;8.27;7.10;;;12.80;99.90;;;;;;5044297;28;20200;-53
2023/04/11 04:17:50;;;;;;;7.20;6.50;;;12.80;99.90;;;;;;5046423;28;20207;-52
2023/04/11 04:20:16;;;;;;;8.90;7.27;;;12.80;99.90;;;;;;5044417;28;20279;-55
2023/04/11 04:22:42;;;;;;;8.40;7.20;;;12.90;99.90;;;;;;5045600;28;20522;-53
2023/04/11 04:25:11;;;;;;;8.20;7.30;;;12.80;99.90;;;;;;5058568;28;20461;-53
2023/04/11 04:27:42;;;;;;;9.33;7.37;;;12.80;99.90;;;;;;5047442;28;21116;-53
2023/04/11 04:30:14;;;;;;;7.53;6.70;;;12.70;99.90;;;;;;5047446;28;20525;-56
2023/04/11 04:32:41;;;;;;;9.93;7.33;;;12.80;99.90;;;;;;5052072;28;20445;-56
2023/04/11 04:35:07;;;;;;;8.53;7.57;;;12.70;99.90;;;;;;5048067;28;20450;-53
2023/04/11 04:37:32;;;;;;;7.67;6.97;;;12.60;99.90;;;;;;5045765;28;20938;-55
2023/04/11 04:40:08;;;;;;;9.63;7.87;;;12.60;99.90;;;;;;5044295;28;20704;-54
2023/04/11 04:42:35;;;;;;;8.97;8.03;;;12.60;99.90;;;;;;5042545;28;20655;-53
2023/04/11 04:45:01;;;;;;;9.30;7.67;;;12.60;99.90;;;;;;5046768;28;22498;-53
2023/04/11 04:47:32;;;;;;;10.30;7.27;;;12.60;99.90;;;;;;5052172;28;20481;-55
2023/04/11 04:49:59;;;;;;;8.67;7.80;;;12.70;99.90;;;;;;5044306;28;20541;-52
2023/04/11 04:52:26;;;;;;;10.43;8.30;;;12.70;99.90;;;;;;5044703;28;20452;-55
2023/04/11 04:54:56;;;;;;;7.97;6.43;;;12.70;99.90;;;;;;5049733;28;20506;-52
2023/04/11 04:57:26;;;;;;;11.37;7.07;;;12.70;99.90;;;;;;5045472;28;20448;-54
2023/04/11 04:59:52;;;;;;;11.20;7.60;;;12.80;99.90;;;;;;5045460;28;20836;-53
2023/04/11 05:02:18;;;;;;;9.27;7.47;;;12.80;99.90;;;;;;5047186;28;20944;-54
2023/04/11 05:04:43;;;;;;;8.90;8.00;;;12.70;99.90;;;;;;5048885;28;20469;-52
2023/04/11 05:07:12;;;;;;;9.50;7.70;;;12.70;99.90;;;;;;5045393;28;20183;-55
2023/04/11 05:09:38;;;;;;;26.20;9.40;;;12.60;99.90;;;;;;5041883;28;20192;-53
2023/04/11 05:12:04;;;;;;;7.90;7.07;;;12.50;99.90;;;;;;5047136;28;20520;-52
2023/04/11 05:14:30;;;;;;;11.07;8.40;;;12.50;99.90;;;;;;5047989;28;20192;-54
2023/04/11 05:16:55;;;;;;;8.90;7.50;;;12.50;99.90;;;;;;5043551;28;20446;-54
2023/04/11 05:19:21;;;;;;;8.50;7.60;;;12.50;99.90;;;;;;5048515;28;20200;-54
2023/04/11 05:21:46;;;;;;;10.47;8.10;;;12.40;99.90;;;;;;5042136;28;20192;-52
2023/04/11 05:24:12;;;;;;;11.07;7.80;;;12.40;99.90;;;;;;5043808;28;20207;-52
2023/04/11 05:26:38;;;;;;;10.50;7.90;;;12.40;99.90;;;;;;5044926;28;20185;-52
2023/04/11 05:29:03;;;;;;;9.73;7.50;;;12.50;99.90;;;;;;5045742;28;20698;-55
2023/04/11 05:31:29;;;;;;;9.83;7.90;;;12.40;99.90;;;;;;5048099;28;20191;-53
2023/04/11 05:33:55;;;;;;;9.57;8.57;;;12.30;99.90;;;;;;5049671;28;20215;-53
2023/04/11 05:36:21;;;;;;;8.30;7.40;;;12.30;99.90;;;;;;5040060;28;20672;-53
2023/04/11 05:38:47;;;;;;;8.57;7.67;;;12.30;99.90;;;;;;5047162;28;20442;-54
2023/04/11 05:41:12;;;;;;;9.40;8.27;;;12.40;99.90;;;;;;5043493;28;20454;-54
2023/04/11 05:43:38;;;;;;;7.30;6.50;;;12.30;99.90;;;;;;5045649;28;20916;-53
2023/04/11 05:46:04;;;;;;;9.70;7.33;;;12.40;99.90;;;;;;5050364;28;20184;-52
2023/04/11 05:48:30;;;;;;;8.43;7.40;;;12.40;99.90;;;;;;5044751;28;20212;-52
2023/04/11 05:50:57;;;;;;;9.80;7.87;;;12.40;99.90;;;;;;5043387;28;20553;-55
2023/04/11 05:53:22;;;;;;;10.73;8.07;;;12.50;99.90;;;;;;5047071;28;20450;-54
2023/04/11 05:55:48;;;;;;;10.67;7.77;;;12.50;99.90;;;;;;5049752;28;20482;-54
2023/04/11 05:58:14;;;;;;;9.43;7.57;;;12.50;99.90;;;;;;5052247;28;20192;-52
2023/04/11 06:00:39;;;;;;;11.60;8.33;;;12.50;99.90;;;;;;5051651;28;20626;-55
2023/04/11 06:03:06;;;;;;;10.43;8.50;;;12.40;99.90;;;;;;5050029;28;20635;-53
2023/04/11 06:05:33;;;;;;;9.80;7.47;;;12.40;99.90;;;;;;5050273;28;20208;-53
2023/04/11 06:08:03;;;;;;;12.30;8.60;;;12.40;99.90;;;;;;5045622;28;20446;-54
2023/04/11 06:10:29;;;;;;;10.10;8.90;;;12.40;99.90;;;;;;5041601;28;20445;-55
2023/04/11 06:12:56;;;;;;;8.57;7.67;;;12.50;99.90;;;;;;5043881;28;20446;-53
2023/04/11 06:15:22;;;;;;;9.50;7.57;;;12.20;1.00;;;;;;5048482;28;20541;-52
2023/04/11 06:17:48;;;;;;;8.60;7.70;;;12.50;99.90;;;;;;5042898;28;20439;-52
2023/04/11 06:20:15;;;;;;;10.33;8.90;;;12.50;99.90;;;;;;5047940;28;20490;-52
2023/04/11 06:22:41;;;;;;;10.60;8.67;;;12.50;99.90;;;;;;5040774;28;20200;-53
2023/04/11 06:25:07;;;;;;;9.23;8.27;;;12.50;1.00;;;;;;5044650;28;20467;-53
2023/04/11 06:27:33;;;;;;;8.70;7.80;;;12.50;1.00;;;;;;5046425;28;20443;-53
2023/04/11 06:29:59;;;;;;;12.13;8.40;;;12.50;1.00;;;;;;5063197;28;20491;-53
2023/04/11 06:32:25;;;;;;;14.27;8.17;;;12.50;1.00;;;;;;5071704;28;20230;-51
2023/04/11 06:34:51;;;;;;;9.80;8.47;;;12.40;1.00;;;;;;5071028;28;20502;-52
2023/04/11 06:37:17;;;;;;;12.17;8.40;;;12.40;1.00;;;;;;5070855;28;20249;-54
2023/04/11 06:39:42;;;;;;;10.30;8.30;;;12.30;1.00;;;;;;5070889;28;20438;-55
2023/04/11 06:42:08;;;;;;;10.67;8.77;;;12.30;1.00;;;;;;5052845;28;20239;-54
2023/04/11 06:44:34;;;;;;;10.60;8.43;;;12.30;1.00;;;;;;5050834;28;20203;-55
2023/04/11 06:47:00;;;;;;;10.67;8.00;;;12.20;1.00;;;;;;5051052;28;20568;-54
2023/04/11 06:49:27;;;;;;;8.93;7.80;;;12.30;1.00;;;;;;5051166;28;20462;-53
2023/04/11 06:51:53;;;;;;;9.50;8.20;;;12.30;1.00;;;;;;5050638;28;20192;-56
2023/04/11 06:54:19;;;;;;;9.60;8.60;;;12.60;1.00;;;;;;5050375;28;20502;-54
2023/04/11 06:56:46;;;;;;;10.40;7.87;;;12.60;1.00;;;;;;5049231;28;20450;-52
2023/04/11 06:59:12;;;;;;;10.40;7.43;;;12.70;1.00;;;;;;5050410;28;20490;-55
2023/04/11 07:01:38;;;;;;;8.70;7.33;;;12.60;1.00;;;;;;5047429;28;20475;-56
2023/04/11 07:04:05;;;;;;;7.23;6.50;;;12.70;1.00;;;;;;5050821;28;20475;-52
2023/04/11 07:06:39;;;;;;;8.20;6.80;;;12.80;1.00;;;;;;5048940;28;20438;-54
2023/04/11 07:09:05;;;;;;;9.40;6.60;;;12.70;1.00;;;;;;5067851;28;20919;-54
2023/04/11 07:11:31;;;;;;;6.87;6.07;;;12.60;1.00;;;;;;5070478;28;20483;-52
2023/04/11 07:14:00;;;;;;;7.57;5.60;;;12.60;1.00;;;;;;5070322;28;20437;-54
2023/04/11 07:16:26;;;;;;;6.40;5.70;;;12.50;1.00;;;;;;5070511;28;20476;-54
2023/04/11 07:18:53;;;;;;;7.17;5.60;;;12.50;1.00;;;;;;5051874;28;20847;-52
2023/04/11 07:21:19;;;;;;;6.83;5.50;;;12.40;1.00;;;;;;5064058;28;20446;-55
2023/04/11 07:23:45;;;;;;;5.33;4.40;;;12.20;1.00;;;;;;5050274;28;20463;-53
2023/04/11 07:26:12;;;;;;;5.07;4.57;;;12.30;1.00;;;;;;5050210;28;20550;-53
2023/04/11 07:28:39;;;;;;;5.13;4.43;;;12.30;1.00;;;;;;5049373;28;20248;-52
2023/04/11 07:31:06;;;;;;;8.03;4.80;;;12.40;1.00;;;;;;5050090;28;20438;-53
2023/04/11 07:33:38;;;;;;;6.73;5.20;;;12.40;1.00;;;;;;5050497;28;20944;-54
2023/04/11 07:36:05;;;;;;;7.20;4.50;;;12.40;1.00;;;;;;5047913;28;20454;-54
2023/04/11 07:38:32;;;;;;;5.87;3.50;;;12.30;1.00;;;;;;5049303;28;20948;-53
2023/04/11 07:41:00;;;;;;;6.47;4.13;;;12.50;1.00;;;;;;5050183;28;20758;-51
2023/04/11 07:43:26;;;;;;;4.33;3.27;;;12.60;1.00;;;;;;5050190;28;20431;-53
2023/04/11 07:45:53;;;;;;;3.53;3.20;;;12.60;1.00;;;;;;5050184;28;21074;-53
2023/04/11 07:48:24;;;;;;;3.50;3.03;;;12.70;1.00;;;;;;5050145;28;20447;-55
2023/04/11 07:50:49;;;;;;;3.10;2.80;;;12.70;1.00;;;;;;5049773;28;20431;-53
2023/04/11 07:53:15;;;;;;;4.00;3.13;;;12.70;1.00;;;;;;5046654;28;20466;-53
2023/04/11 07:55:41;;;;;;;3.60;3.20;;;12.70;1.00;;;;;;5049428;28;20224;-54
2023/04/11 07:58:06;;;;;;;3.30;2.70;;;12.60;1.00;;;;;;5049929;28;20910;-53
2023/04/11 08:00:32;;;;;;;4.53;3.50;;;12.60;1.00;;;;;;5049448;28;20239;-54
2023/04/11 08:03:06;;;;;;;4.10;3.20;;;12.70;1.00;;;;;;5049219;28;20192;-54
2023/04/11 08:05:33;;;;;;;4.03;3.17;;;12.70;1.00;;;;;;5049770;28;20983;-53
2023/04/11 08:07:59;;;;;;;4.30;3.63;;;12.80;1.00;;;;;;5048019;28;20450;-55
2023/04/11 08:10:25;;;;;;;4.03;3.00;;;12.80;1.00;;;;;;5049352;28;20477;-54
2023/04/11 08:12:51;;;;;;;4.97;3.80;;;12.80;1.00;;;;;;5049544;28;20974;-55
2023/04/11 08:15:17;;;;;;;3.70;2.90;;;12.80;1.00;;;;;;5048950;28;20266;-55
2023/04/11 08:17:44;;;;;;;2.93;2.60;;;12.70;1.00;;;;;;5049352;28;20189;-53
2023/04/11 08:20:11;;;;;;;4.10;3.67;;;12.70;1.00;;;;;;5049435;28;20449;-56
2023/04/11 08:22:41;;;;;;;4.60;2.83;;;12.80;1.00;;;;;;5048229;28;20454;-52
2023/04/11 08:25:08;;;;;;;3.80;3.17;;;13.00;1.00;;;;;;5048356;28;20817;-52
2023/04/11 08:27:34;;;;;;;3.43;3.00;;;13.10;1.00;;;;;;5049165;28;20829;-52
2023/04/11 08:30:00;;;;;;;3.93;2.43;;;13.10;1.00;;;;;;5049312;28;20967;-55
2023/04/11 08:32:25;;;;;;;3.70;3.07;;;13.10;1.00;;;;;;5042995;28;20531;-55
2023/04/11 08:34:51;;;;;;;3.57;3.10;;;13.10;1.00;;;;;;5049075;28;20195;-54
2023/04/11 08:37:17;;;;;;;3.17;2.60;;;13.10;1.00;;;;;;5062188;28;20267;-54
2023/04/11 08:39:42;;;;;;;4.30;3.20;;;13.00;1.00;;;;;;5069320;28;20192;-54
2023/04/11 08:42:29;;;;;;;3.87;2.97;;;13.00;1.00;;;;;;5068890;28;20195;-53
2023/04/11 08:44:55;;;;;;;3.10;2.60;;;12.90;1.00;;;;;;5068931;28;20265;-54
2023/04/11 08:47:23;;;;;;;3.37;2.80;;;13.10;1.00;;;;;;5064592;28;20435;-54
2023/04/11 08:49:50;;;;;;;3.20;2.73;;;13.10;1.00;;;;;;5047366;28;20438;-56
2023/04/11 08:52:18;;;;;;;4.10;2.60;;;13.10;1.00;;;;;;5048817;28;20437;-54
2023/04/11 08:54:44;;;;;;;3.23;2.70;;;13.10;1.00;;;;;;5048741;28;20753;-54
2023/04/11 08:57:13;;;;;;;4.97;3.70;;;13.20;1.00;;;;;;5048804;28;20474;-54
2023/04/11 08:59:49;;;;;;;5.47;2.70;;;13.20;1.00;;;;;;5048531;28;20461;-54
2023/04/11 09:02:15;;;;;;;4.03;3.23;;;13.20;1.00;;;;;;5048831;28;20445;-53
2023/04/11 09:04:42;;;;;;;4.37;3.10;;;13.10;1.00;;;;;;5047773;28;20470;-55
2023/04/11 09:07:08;;;;;;;2.80;2.20;;;13.20;1.00;;;;;;5049783;28;20606;-54
2023/04/11 09:09:35;;;;;;;3.97;2.23;;;13.10;1.00;;;;;;5052512;28;20469;-54
2023/04/11 09:12:02;;;;;;;2.27;2.07;;;12.70;1.00;;;;;;5052455;28;20489;-56
2023/04/11 09:14:28;;;;;;;2.87;1.87;;;12.60;1.00;;;;;;5052699;28;20435;-54
2023/04/11 09:16:55;;;;;;;2.97;2.47;;;12.60;1.00;;;;;;5052702;28;21010;-53
2023/04/11 09:19:26;;;;;;;3.20;2.20;;;12.70;1.00;;;;;;5050265;28;20448;-52
2023/04/11 09:21:53;;;;;;;2.70;2.17;;;12.70;1.00;;;;;;5052385;28;20473;-53
2023/04/11 09:24:19;;;;;;;4.23;1.80;;;12.80;1.00;;;;;;5052368;28;21039;-55
2023/04/11 09:26:44;;;;;;;5.40;1.90;;;12.70;1.00;;;;;;5052580;28;20555;-54
2023/04/11 09:29:10;;;;;;;3.20;1.90;;;12.70;1.00;;;;;;5051000;28;20180;-54
2023/04/11 09:31:43;;;;;;;5.70;2.80;;;12.60;1.00;;;;;;5052219;28;20619;-54
2023/04/11 09:34:11;;;;;;;5.37;2.07;;;12.70;1.00;;;;;;5068706;28;20187;-53
2023/04/11 09:36:37;;;;;;;2.23;1.80;;;12.80;1.00;;;;;;5059914;28;20944;-52
2023/04/11 09:39:19;;;;;;;3.20;1.73;;;13.00;1.00;;;;;;5049596;28;20876;-54
2023/04/11 09:41:45;;;;;;;4.50;1.90;;;13.10;1.00;;;;;;5052015;28;20442;-52
2023/04/11 09:44:11;;;;;;;3.87;2.00;;;13.20;1.00;;;;;;5052504;28;20968;-56
2023/04/11 09:46:54;;;;;;;3.70;1.90;;;13.30;1.00;;;;;;5052090;28;20472;-53
2023/04/11 09:49:21;;;;;;;2.97;2.27;;;13.20;1.00;;;;;;5051941;28;20483;-54
2023/04/11 09:51:46;;;;;;;4.17;2.30;;;13.20;1.00;;;;;;5052050;28;20920;-54
2023/04/11 09:54:14;;;;;;;2.77;1.73;;;13.20;1.00;;;;;;5048523;28;20536;-54
2023/04/11 09:56:41;;;;;;;3.90;1.70;;;13.40;1.00;;;;;;5062554;28;20192;-54
2023/04/11 09:59:07;;;;;;;3.47;2.40;;;13.70;1.00;;;;;;5062032;28;20446;-56
2023/04/11 10:01:32;;;;;;;3.93;1.93;;;13.90;1.00;;;;;;5051740;28;20435;-55
2023/04/11 10:03:59;;;;;;;3.47;2.27;;;14.10;1.00;;;;;;5050103;28;20212;-53
2023/04/11 10:07:00;;;;;;;1.87;1.50;;;14.10;1.00;;;;;;5051094;28;20184;-52
2023/04/11 10:09:27;;;;;;;3.03;2.30;;;14.10;1.00;;;;;;5049113;28;20458;-54
2023/04/11 10:11:53;;;;;;;4.40;1.93;;;14.00;99.90;;;;;;5051642;28;20427;-52
2023/04/11 10:14:37;;;;;;;2.23;1.83;;;14.10;99.90;;;;;;5051109;28;20626;-54
2023/04/11 10:17:17;;;;;;;5.00;2.20;;;14.10;99.90;;;;;;5050984;28;20188;-54
2023/04/11 10:19:44;;;;;;;2.23;1.83;;;14.30;99.90;;;;;;5051150;28;20448;-54
2023/04/11 10:22:30;;;;;;;6.13;3.30;;;14.50;99.90;;;;;;5051725;28;20439;-53
2023/04/11 10:25:17;;;;;;;5.57;2.20;;;14.80;99.90;;;;;;5048838;28;20581;-53
2023/04/11 10:27:48;;;;;;;4.17;2.07;;;14.90;99.90;;;;;;5051481;28;20446;-53
2023/04/11 10:30:14;;;;;;;6.13;2.50;;;15.00;99.90;;;;;;5048705;28;20443;-56
2023/04/11 10:33:00;;;;;;;4.83;2.20;;;15.00;99.90;;;;;;5052649;28;20435;-52
2023/04/11 10:35:28;;;;;;;3.53;2.30;;;14.70;99.90;;;;;;5050950;28;20508;-53
2023/04/11 10:37:55;;;;;;;3.47;2.40;;;14.70;99.90;;;;;;5050513;28;20508;-57
2023/04/11 10:40:21;;;;;;;5.27;2.20;;;14.90;99.90;;;;;;5052265;28;20489;-56
2023/04/11 10:42:47;;;;;;;3.73;1.97;;;14.80;99.90;;;;;;5051249;28;20489;-54
2023/04/11 10:45:21;;;;;;;4.03;2.43;;;15.00;99.90;;;;;;5048185;28;20987;-54
2023/04/11 10:47:55;;;;;;;3.37;2.07;;;14.80;99.90;;;;;;5049849;28;20492;-52
2023/04/11 10:50:30;;;;;;;5.17;2.73;;;14.90;99.90;;;;;;5050226;28;20554;-52
2023/04/11 10:52:58;;;;;;;5.17;2.20;;;15.20;99.90;;;;;;5050871;28;20438;-54
2023/04/11 10:55:25;;;;;;;3.53;2.60;;;15.30;99.90;;;;;;5050577;28;20971;-52
2023/04/11 10:58:07;;;;;;;4.87;1.83;;;14.90;99.90;;;;;;5050857;28;20446;-55
2023/04/11 11:00:51;;;;;;;4.10;2.00;;;14.70;99.90;;;;;;5050617;28;20426;-53
2023/04/11 11:03:23;;;;;;;4.87;1.37;;;14.50;99.90;;;;;;5050434;28;20450;-57
2023/04/11 11:05:58;;;;;;;6.97;1.40;;;12.90;99.90;;;;;;5048238;28;20455;-55
2023/04/11 11:08:29;;;;;;;2.80;1.30;;;11.90;99.90;;;;;;5050605;28;20426;-55
2023/04/11 11:11:00;;;;;;;6.00;1.83;;;10.00;1.00;;;;;;5050210;28;21050;-54
2023/04/11 11:13:43;;;;;;;3.80;1.50;;;9.40;1.00;;;;;;5050378;28;20474;-53
2023/04/11 11:16:17;;;;;;;5.23;2.20;;;9.20;1.00;;;;;;5050295;28;20593;-53
2023/04/11 11:18:47;;;;;;;3.10;2.30;;;9.30;1.00;;;;;;5049869;28;20439;-55
2023/04/11 11:21:15;;;;;;;3.47;2.00;;;9.60;1.00;;;;;;5050488;28;20454;-53
2023/04/11 11:24:01;;;;;;;4.90;2.63;;;9.90;1.00;;;;;;5050352;28;20789;-54
2023/04/11 11:26:42;;;;;;;3.93;2.10;;;10.40;99.90;;;;;;5050044;28;20434;-53
2023/04/11 11:29:09;;;;;;;6.83;2.77;;;10.90;99.90;;;;;;5049702;28;20533;-53
2023/04/11 11:31:46;;;;;;;5.80;2.37;;;11.40;99.90;;;;;;5050021;28;20435;-53
2023/04/11 11:34:12;;;;;;;3.83;2.33;;;11.70;1.00;;;;;;5049211;28;20446;-54
2023/04/11 11:36:41;;;;;;;5.23;2.30;;;12.00;99.90;;;;;;5049511;28;20520;-53
2023/04/11 11:39:09;;;;;;;2.77;1.60;;;12.60;99.90;;;;;;5049922;28;20497;-53
2023/04/11 11:41:35;;;;;;;3.00;1.80;;;12.30;1.00;;;;;;5049938;28;20808;-54
2023/04/11 11:44:02;;;;;;;4.97;2.43;;;11.90;1.00;;;;;;5048339;28;20991;-54
2023/04/11 11:46:32;;;;;;;3.23;2.30;;;11.70;1.00;;;;;;5048730;28;20872;-55
2023/04/11 11:49:07;;;;;;;3.80;2.30;;;11.30;1.00;;;;;;5049186;28;20459;-56
2023/04/11 11:51:44;;;;;;;5.13;1.90;;;11.00;1.00;;;;;;5049923;28;20541;-56
2023/04/11 11:54:11;;;;;;;3.63;2.53;;;10.50;1.00;;;;;;5048440;28;20774;-55
2023/04/11 11:56:38;;;;;;;3.03;1.70;;;10.40;1.00;;;;;;5049683;28;20435;-56
2023/04/11 11:59:04;;;;;;;2.27;1.57;;;10.40;1.00;;;;;;5049518;28;20438;-54
2023/04/11 12:01:31;;;;;;;2.80;2.07;;;10.40;1.00;;;;;;5049374;28;20549;-53
2023/04/11 12:03:57;;;;;;;3.63;2.47;;;10.30;1.00;;;;;;5046689;28;20474;-56
2023/04/11 12:06:30;;;;;;;2.70;1.90;;;10.40;1.00;;;;;;5048454;28;20533;-54
2023/04/11 12:09:09;;;;;;;2.10;1.50;;;10.30;1.00;;;;;;5048882;28;20199;-53
2023/04/11 12:11:40;;;;;;;2.43;1.97;;;10.50;1.00;;;;;;5049071;28;20474;-57
2023/04/11 12:14:07;;;;;;;2.00;1.60;;;10.80;1.00;;;;;;5049456;28;20501;-56
2023/04/11 12:16:33;;;;;;;2.83;1.57;;;11.30;1.00;;;;;;5049617;28;20565;-52
2023/04/11 12:19:01;;;;;;;2.67;1.40;;;11.40;1.00;;;;;;5049297;28;20471;-54
2023/04/11 12:21:27;;;;;;;1.83;1.43;;;11.40;1.00;;;;;;5049214;28;20493;-52
2023/04/11 12:23:53;;;;;;;2.60;1.70;;;11.60;1.00;;;;;;5048194;28;20502;-55
2023/04/11 12:26:20;;;;;;;4.30;1.30;;;11.90;1.00;;;;;;5049103;28;20493;-54
2023/04/11 12:28:46;;;;;;;1.80;1.57;;;11.90;1.00;;;;;;5049309;28;20187;-55
2023/04/11 12:31:11;;;;;;;2.60;1.93;;;11.90;1.00;;;;;;5047835;28;20439;-53
2023/04/11 12:33:37;;;;;;;5.13;1.57;;;11.90;1.00;;;;;;5048980;28;20481;-55
2023/04/11 12:36:08;;;;;;;2.43;1.87;;;12.20;1.00;;;;;;5049077;28;20230;-53
2023/04/11 12:38:34;;;;;;;8.33;2.00;;;12.20;1.00;;;;;;5046288;28;20522;-53
2023/04/11 12:41:00;;;;;;;2.63;1.50;;;12.30;1.00;;;;;;5048291;28;20526;-53
2023/04/11 12:43:26;;;;;;;1.70;1.30;;;12.70;1.00;;;;;;5048994;28;20188;-53
2023/04/11 12:45:52;;;;;;;1.50;1.40;;;13.00;1.00;;;;;;5049099;28;20242;-53
2023/04/11 12:48:17;;;;;;;1.33;1.23;;;13.40;1.00;;;;;;5048834;28;20475;-53
2023/04/11 12:50:43;;;;;;;4.90;1.60;;;13.80;1.00;;;;;;5048638;28;20447;-55
2023/04/11 12:53:08;;;;;;;2.20;1.63;;;14.10;1.00;;;;;;5047900;28;20228;-57